sensor_id;sensor_type;location;lat;lon;timestamp;pressure;altitude;pressure_sealevel;temperature;humidity
59110;BME280;44895;47.438;18.978;2022-07-24T00:00:08;100032.66;;;24.49;82.58
59110;BME280;44895;47.438;18.978;2022-07-24T00:03:15;100032.66;;;24.49;83.27
59110;BME280;44895;47.438;18.978;2022-07-24T00:06:19;100039.34;;;24.44;84.28
59110;BME280;44895;47.438;18.978;2022-07-24T00:09:23;100029.47;;;24.50;84.73
59110;BME280;44895;47.438;18.978;2022-07-24T00:12:27;100019.16;;;24.51;84.76
59110;BME280;44895;47.438;18.978;2022-07-24T00:15:31;100027.50;;;24.51;84.94
59110;BME280;44895;47.438;18.978;2022-07-24T00:18:35;100030.25;;;24.51;84.80
59110;BME280;44895;47.438;18.978;2022-07-24T00:21:38;100042.56;;;24.53;85.07
59110;BME280;44895;47.438;18.978;2022-07-24T00:24:42;100049.69;;;24.43;85.88
59110;BME280;44895;47.438;18.978;2022-07-24T00:27:45;100059.53;;;24.34;87.15
59110;BME280;44895;47.438;18.978;2022-07-24T00:30:49;100051.56;;;24.25;88.46
59110;BME280;44895;47.438;18.978;2022-07-24T00:33:53;100054.69;;;24.20;89.96
59110;BME280;44895;47.438;18.978;2022-07-24T00:36:57;100059.38;;;24.08;91.28
59110;BME280;44895;47.438;18.978;2022-07-24T00:40:00;100055.41;;;24.06;91.48
59110;BME280;44895;47.438;18.978;2022-07-24T00:43:04;100051.00;;;24.01;92.31
59110;BME280;44895;47.438;18.978;2022-07-24T00:46:08;100044.72;;;24.04;92.47
59110;BME280;44895;47.438;18.978;2022-07-24T00:49:14;100053.81;;;24.05;92.00
59110;BME280;44895;47.438;18.978;2022-07-24T00:52:18;100051.41;;;24.00;92.13
59110;BME280;44895;47.438;18.978;2022-07-24T00:55:22;100041.47;;;23.99;92.27
59110;BME280;44895;47.438;18.978;2022-07-24T00:58:27;100045.81;;;23.96;92.73
59110;BME280;44895;47.438;18.978;2022-07-24T01:01:31;100045.06;;;23.99;92.77
59110;BME280;44895;47.438;18.978;2022-07-24T01:04:35;100039.53;;;23.99;92.46
59110;BME280;44895;47.438;18.978;2022-07-24T01:07:38;100018.50;;;23.94;90.93
59110;BME280;44895;47.438;18.978;2022-07-24T01:10:42;100015.75;;;23.98;87.39
59110;BME280;44895;47.438;18.978;2022-07-24T01:13:47;100020.16;;;24.10;85.51
59110;BME280;44895;47.438;18.978;2022-07-24T01:16:51;100013.00;;;24.09;84.07
59110;BME280;44895;47.438;18.978;2022-07-24T01:19:55;100020.56;;;24.12;83.04
59110;BME280;44895;47.438;18.978;2022-07-24T01:22:59;100027.75;;;24.24;82.48
59110;BME280;44895;47.438;18.978;2022-07-24T01:26:06;100036.47;;;24.22;82.11
59110;BME280;44895;47.438;18.978;2022-07-24T01:29:11;100022.22;;;24.24;82.57
59110;BME280;44895;47.438;18.978;2022-07-24T01:32:15;100017.81;;;24.19;82.40
59110;BME280;44895;47.438;18.978;2022-07-24T01:35:18;100016.66;;;24.20;81.89
59110;BME280;44895;47.438;18.978;2022-07-24T01:38:22;100020.22;;;24.21;81.23
59110;BME280;44895;47.438;18.978;2022-07-24T01:41:26;100013.47;;;24.22;81.49
59110;BME280;44895;47.438;18.978;2022-07-24T01:44:30;100015.06;;;24.23;80.81
59110;BME280;44895;47.438;18.978;2022-07-24T01:47:33;100006.00;;;24.30;80.69
59110;BME280;44895;47.438;18.978;2022-07-24T01:50:37;100002.41;;;24.25;81.03
59110;BME280;44895;47.438;18.978;2022-07-24T01:53:41;100001.59;;;24.21;80.84
59110;BME280;44895;47.438;18.978;2022-07-24T01:56:45;100013.13;;;24.27;80.24
59110;BME280;44895;47.438;18.978;2022-07-24T01:59:48;100019.44;;;24.24;80.04
59110;BME280;44895;47.438;18.978;2022-07-24T02:02:52;100024.22;;;24.27;79.75
59110;BME280;44895;47.438;18.978;2022-07-24T02:05:55;100024.59;;;24.25;80.77
59110;BME280;44895;47.438;18.978;2022-07-24T02:08:59;100020.59;;;24.16;89.00
59110;BME280;44895;47.438;18.978;2022-07-24T02:12:03;100008.88;;;23.85;92.40
59110;BME280;44895;47.438;18.978;2022-07-24T02:15:07;100000.50;;;23.77;100.00
59110;BME280;44895;47.438;18.978;2022-07-24T02:18:11;99993.63;;;23.57;98.50
59110;BME280;44895;47.438;18.978;2022-07-24T02:21:15;99999.25;;;23.64;97.01
59110;BME280;44895;47.438;18.978;2022-07-24T02:24:19;100005.19;;;23.63;100.00
59110;BME280;44895;47.438;18.978;2022-07-24T02:27:23;100007.50;;;23.57;92.74
59110;BME280;44895;47.438;18.978;2022-07-24T02:30:26;100013.47;;;23.59;92.98
59110;BME280;44895;47.438;18.978;2022-07-24T02:33:30;100019.03;;;23.63;95.37
59110;BME280;44895;47.438;18.978;2022-07-24T02:36:34;100021.78;;;23.59;94.70
59110;BME280;44895;47.438;18.978;2022-07-24T02:39:38;100017.13;;;23.70;93.64
59110;BME280;44895;47.438;18.978;2022-07-24T02:42:42;100018.22;;;23.62;93.14
59110;BME280;44895;47.438;18.978;2022-07-24T02:45:46;100003.22;;;23.67;89.54
59110;BME280;44895;47.438;18.978;2022-07-24T02:48:50;99979.06;;;23.67;90.41
59110;BME280;44895;47.438;18.978;2022-07-24T02:51:53;99979.91;;;23.71;90.07
59110;BME280;44895;47.438;18.978;2022-07-24T02:54:57;99968.81;;;23.71;95.48
59110;BME280;44895;47.438;18.978;2022-07-24T02:58:01;99971.00;;;23.48;100.00
59110;BME280;44895;47.438;18.978;2022-07-24T03:01:05;99963.94;;;23.54;99.04
59110;BME280;44895;47.438;18.978;2022-07-24T03:04:10;99974.19;;;23.50;92.12
59110;BME280;44895;47.438;18.978;2022-07-24T03:07:14;99965.91;;;23.53;90.75
59110;BME280;44895;47.438;18.978;2022-07-24T03:10:18;99974.59;;;23.52;90.06
59110;BME280;44895;47.438;18.978;2022-07-24T03:13:22;99981.75;;;23.53;87.23
59110;BME280;44895;47.438;18.978;2022-07-24T03:16:26;99989.28;;;23.56;85.02
59110;BME280;44895;47.438;18.978;2022-07-24T03:19:30;99993.25;;;23.58;87.10
59110;BME280;44895;47.438;18.978;2022-07-24T03:22:33;99997.16;;;23.50;86.29
59110;BME280;44895;47.438;18.978;2022-07-24T03:25:37;99998.78;;;23.58;84.81
59110;BME280;44895;47.438;18.978;2022-07-24T03:28:41;99982.97;;;23.59;86.78
59110;BME280;44895;47.438;18.978;2022-07-24T03:31:45;99970.72;;;23.60;85.60
59110;BME280;44895;47.438;18.978;2022-07-24T03:34:48;99971.91;;;23.63;82.84
59110;BME280;44895;47.438;18.978;2022-07-24T03:37:52;99956.84;;;23.60;83.23
59110;BME280;44895;47.438;18.978;2022-07-24T03:40:56;99954.44;;;23.58;83.61
59110;BME280;44895;47.438;18.978;2022-07-24T03:43:59;99965.50;;;23.55;84.86
59110;BME280;44895;47.438;18.978;2022-07-24T03:47:03;99974.66;;;23.59;83.18
59110;BME280;44895;47.438;18.978;2022-07-24T03:50:07;99981.44;;;23.65;81.93
59110;BME280;44895;47.438;18.978;2022-07-24T03:53:11;99981.03;;;23.67;82.35
59110;BME280;44895;47.438;18.978;2022-07-24T03:56:15;99991.78;;;23.72;80.48
59110;BME280;44895;47.438;18.978;2022-07-24T03:59:19;99990.22;;;23.78;81.15
59110;BME280;44895;47.438;18.978;2022-07-24T04:02:22;99987.88;;;23.84;80.38
59110;BME280;44895;47.438;18.978;2022-07-24T04:05:26;99980.78;;;23.90;81.69
59110;BME280;44895;47.438;18.978;2022-07-24T04:08:31;99990.69;;;23.87;80.24
59110;BME280;44895;47.438;18.978;2022-07-24T04:11:36;99995.91;;;23.96;80.31
59110;BME280;44895;47.438;18.978;2022-07-24T04:14:40;99988.78;;;23.99;79.19
59110;BME280;44895;47.438;18.978;2022-07-24T04:17:44;99997.19;;;24.09;79.39
59110;BME280;44895;47.438;18.978;2022-07-24T04:20:48;99993.72;;;24.27;79.22
59110;BME280;44895;47.438;18.978;2022-07-24T04:23:52;99999.25;;;24.27;79.20
59110;BME280;44895;47.438;18.978;2022-07-24T04:26:55;99996.50;;;24.34;79.08
59110;BME280;44895;47.438;18.978;2022-07-24T04:29:59;99994.13;;;24.36;79.16
59110;BME280;44895;47.438;18.978;2022-07-24T04:33:04;99999.28;;;24.38;80.67
59110;BME280;44895;47.438;18.978;2022-07-24T04:36:08;100008.06;;;24.51;79.98
59110;BME280;44895;47.438;18.978;2022-07-24T04:39:12;100010.00;;;24.43;80.17
59110;BME280;44895;47.438;18.978;2022-07-24T04:42:15;100017.53;;;24.39;80.66
59110;BME280;44895;47.438;18.978;2022-07-24T04:45:19;100030.22;;;24.40;80.40
59110;BME280;44895;47.438;18.978;2022-07-24T04:48:23;100027.47;;;24.43;80.62
59110;BME280;44895;47.438;18.978;2022-07-24T04:51:28;100029.06;;;24.48;80.38
59110;BME280;44895;47.438;18.978;2022-07-24T04:54:32;100035.00;;;24.43;80.55
59110;BME280;44895;47.438;18.978;2022-07-24T04:57:36;100045.25;;;24.35;80.59
59110;BME280;44895;47.438;18.978;2022-07-24T05:00:40;100054.41;;;24.43;80.63
59110;BME280;44895;47.438;18.978;2022-07-24T05:03:43;100059.56;;;24.37;80.54
59110;BME280;44895;47.438;18.978;2022-07-24T05:06:47;100064.34;;;24.44;80.66
59110;BME280;44895;47.438;18.978;2022-07-24T05:09:51;100067.16;;;24.58;79.76
59110;BME280;44895;47.438;18.978;2022-07-24T05:12:55;100069.56;;;24.60;80.01
59110;BME280;44895;47.438;18.978;2022-07-24T05:15:58;100072.38;;;24.67;80.05
59110;BME280;44895;47.438;18.978;2022-07-24T05:19:02;100076.81;;;24.75;79.32
59110;BME280;44895;47.438;18.978;2022-07-24T05:22:06;100079.16;;;24.73;79.61
59110;BME280;44895;47.438;18.978;2022-07-24T05:25:10;100096.19;;;24.65;79.88
59110;BME280;44895;47.438;18.978;2022-07-24T05:28:14;100094.19;;;24.69;79.75
59110;BME280;44895;47.438;18.978;2022-07-24T05:31:18;100093.88;;;24.81;78.74
59110;BME280;44895;47.438;18.978;2022-07-24T05:34:22;100109.06;;;25.20;78.51
59110;BME280;44895;47.438;18.978;2022-07-24T05:37:26;100101.22;;;25.44;76.52
59110;BME280;44895;47.438;18.978;2022-07-24T05:40:30;100096.69;;;27.54;69.57
59110;BME280;44895;47.438;18.978;2022-07-24T05:43:33;100094.59;;;29.45;60.05
59110;BME280;44895;47.438;18.978;2022-07-24T05:46:37;100091.69;;;30.44;56.61
59110;BME280;44895;47.438;18.978;2022-07-24T05:49:41;100092.94;;;31.53;51.83
59110;BME280;44895;47.438;18.978;2022-07-24T05:52:44;100085.69;;;31.88;49.75
59110;BME280;44895;47.438;18.978;2022-07-24T05:55:49;100097.97;;;33.73;45.83
59110;BME280;44895;47.438;18.978;2022-07-24T05:58:53;100086.16;;;32.75;47.84
59110;BME280;44895;47.438;18.978;2022-07-24T06:01:58;100090.25;;;33.52;46.33
59110;BME280;44895;47.438;18.978;2022-07-24T06:05:03;100090.84;;;34.52;43.50
59110;BME280;44895;47.438;18.978;2022-07-24T06:08:07;100081.03;;;35.69;40.44
59110;BME280;44895;47.438;18.978;2022-07-24T06:11:12;100092.00;;;34.19;42.49
59110;BME280;44895;47.438;18.978;2022-07-24T06:14:15;100096.84;;;33.84;43.71
59110;BME280;44895;47.438;18.978;2022-07-24T06:17:19;100097.66;;;34.63;40.87
59110;BME280;44895;47.438;18.978;2022-07-24T06:20:23;100094.56;;;35.34;39.23
59110;BME280;44895;47.438;18.978;2022-07-24T06:23:27;100105.53;;;34.46;40.88
59110;BME280;44895;47.438;18.978;2022-07-24T06:26:31;100100.84;;;36.06;37.60
59110;BME280;44895;47.438;18.978;2022-07-24T06:29:34;100106.25;;;35.54;38.27
59110;BME280;44895;47.438;18.978;2022-07-24T06:32:38;100119.97;;;34.49;39.97
59110;BME280;44895;47.438;18.978;2022-07-24T06:35:42;100122.19;;;34.19;40.78
59110;BME280;44895;47.438;18.978;2022-07-24T06:38:46;100122.69;;;36.43;36.72
59110;BME280;44895;47.438;18.978;2022-07-24T06:41:50;100119.25;;;37.10;35.20
59110;BME280;44895;47.438;18.978;2022-07-24T06:45:02;100114.28;;;35.74;37.09
59110;BME280;44895;47.438;18.978;2022-07-24T06:48:06;100111.97;;;35.32;37.88
59110;BME280;44895;47.438;18.978;2022-07-24T06:51:10;100124.34;;;34.50;38.82
59110;BME280;44895;47.438;18.978;2022-07-24T06:54:14;100127.84;;;33.32;40.64
59110;BME280;44895;47.438;18.978;2022-07-24T06:57:18;100124.94;;;32.38;42.36
59110;BME280;44895;47.438;18.978;2022-07-24T07:00:21;100121.13;;;32.74;42.77
59110;BME280;44895;47.438;18.978;2022-07-24T07:03:25;100137.13;;;32.31;43.83
59110;BME280;44895;47.438;18.978;2022-07-24T07:06:29;100134.16;;;31.56;45.64
59110;BME280;44895;47.438;18.978;2022-07-24T07:09:33;100129.91;;;31.15;46.20
59110;BME280;44895;47.438;18.978;2022-07-24T07:12:39;100125.53;;;30.94;46.69
59110;BME280;44895;47.438;18.978;2022-07-24T07:15:42;100126.53;;;30.83;47.09
59110;BME280;44895;47.438;18.978;2022-07-24T07:18:46;100136.69;;;30.77;48.32
59110;BME280;44895;47.438;18.978;2022-07-24T07:21:50;100142.13;;;30.64;48.17
59110;BME280;44895;47.438;18.978;2022-07-24T07:24:54;100139.31;;;30.84;48.14
59110;BME280;44895;47.438;18.978;2022-07-24T07:27:58;100132.13;;;31.03;48.08
59110;BME280;44895;47.438;18.978;2022-07-24T07:31:02;100141.03;;;30.78;47.16
59110;BME280;44895;47.438;18.978;2022-07-24T07:34:05;100139.56;;;30.53;47.67
59110;BME280;44895;47.438;18.978;2022-07-24T07:37:09;100139.97;;;30.92;47.46
59110;BME280;44895;47.438;18.978;2022-07-24T07:40:13;100132.44;;;30.89;45.45
59110;BME280;44895;47.438;18.978;2022-07-24T07:43:17;100132.44;;;30.89;45.15
59110;BME280;44895;47.438;18.978;2022-07-24T07:46:21;100137.13;;;30.32;45.85
59110;BME280;44895;47.438;18.978;2022-07-24T07:49:24;100136.47;;;30.24;46.57
59110;BME280;44895;47.438;18.978;2022-07-24T07:52:29;100134.47;;;30.24;47.56
59110;BME280;44895;47.438;18.978;2022-07-24T07:55:33;100140.66;;;30.12;47.97
59110;BME280;44895;47.438;18.978;2022-07-24T07:58:36;100141.66;;;30.02;47.58
59110;BME280;44895;47.438;18.978;2022-07-24T08:01:40;100142.00;;;29.80;48.07
59110;BME280;44895;47.438;18.978;2022-07-24T08:04:44;100140.72;;;30.08;49.00
59110;BME280;44895;47.438;18.978;2022-07-24T08:07:47;100143.84;;;29.90;47.53
59110;BME280;44895;47.438;18.978;2022-07-24T08:10:51;100135.47;;;29.87;47.41
59110;BME280;44895;47.438;18.978;2022-07-24T08:13:55;100138.63;;;30.16;48.05
59110;BME280;44895;47.438;18.978;2022-07-24T08:16:59;100135.06;;;30.36;48.63
59110;BME280;44895;47.438;18.978;2022-07-24T08:20:03;100144.81;;;30.04;49.14
59110;BME280;44895;47.438;18.978;2022-07-24T08:23:07;100140.94;;;29.98;49.78
59110;BME280;44895;47.438;18.978;2022-07-24T08:26:11;100147.25;;;30.02;50.29
59110;BME280;44895;47.438;18.978;2022-07-24T08:29:15;100149.47;;;29.87;50.51
59110;BME280;44895;47.438;18.978;2022-07-24T08:32:19;100151.03;;;29.64;51.67
59110;BME280;44895;47.438;18.978;2022-07-24T08:35:23;100152.88;;;29.74;51.92
59110;BME280;44895;47.438;18.978;2022-07-24T08:38:26;100153.47;;;29.62;52.52
59110;BME280;44895;47.438;18.978;2022-07-24T08:41:31;100157.97;;;29.56;52.07
59110;BME280;44895;47.438;18.978;2022-07-24T08:44:38;100159.44;;;29.37;52.52
59110;BME280;44895;47.438;18.978;2022-07-24T08:47:43;100157.00;;;29.39;52.55
59110;BME280;44895;47.438;18.978;2022-07-24T08:50:50;100153.91;;;29.60;52.46
59110;BME280;44895;47.438;18.978;2022-07-24T08:53:53;100163.06;;;29.61;50.32
59110;BME280;44895;47.438;18.978;2022-07-24T08:56:58;100162.88;;;29.48;49.66
59110;BME280;44895;47.438;18.978;2022-07-24T09:00:02;100160.03;;;29.75;48.41
59110;BME280;44895;47.438;18.978;2022-07-24T09:03:06;100161.94;;;29.82;48.67
59110;BME280;44895;47.438;18.978;2022-07-24T09:06:12;100170.22;;;29.66;46.63
59110;BME280;44895;47.438;18.978;2022-07-24T09:09:20;100170.94;;;29.70;46.63
59110;BME280;44895;47.438;18.978;2022-07-24T09:12:24;100165.59;;;29.79;46.72
59110;BME280;44895;47.438;18.978;2022-07-24T09:15:28;100164.06;;;29.74;46.72
59110;BME280;44895;47.438;18.978;2022-07-24T09:18:34;100173.16;;;29.82;46.62
59110;BME280;44895;47.438;18.978;2022-07-24T09:21:40;100175.31;;;29.98;44.67
59110;BME280;44895;47.438;18.978;2022-07-24T09:24:44;100174.28;;;29.88;44.18
59110;BME280;44895;47.438;18.978;2022-07-24T09:31:00;100171.19;;;30.06;45.42
59110;BME280;44895;47.438;18.978;2022-07-24T09:34:08;100169.41;;;30.16;44.93
59110;BME280;44895;47.438;18.978;2022-07-24T09:37:12;100176.84;;;30.26;45.24
59110;BME280;44895;47.438;18.978;2022-07-24T09:40:17;100166.63;;;30.36;45.64
59110;BME280;44895;47.438;18.978;2022-07-24T09:43:27;100173.69;;;30.45;45.67
59110;BME280;44895;47.438;18.978;2022-07-24T09:46:30;100180.03;;;30.25;45.70
59110;BME280;44895;47.438;18.978;2022-07-24T09:49:36;100167.22;;;30.28;45.93
59110;BME280;44895;47.438;18.978;2022-07-24T09:52:41;100179.19;;;30.28;45.75
59110;BME280;44895;47.438;18.978;2022-07-24T09:56:15;100181.28;;;30.24;46.01
59110;BME280;44895;47.438;18.978;2022-07-24T09:59:24;100179.88;;;30.12;45.09
59110;BME280;44895;47.438;18.978;2022-07-24T10:02:33;100183.88;;;30.11;45.73
59110;BME280;44895;47.438;18.978;2022-07-24T10:05:42;100184.69;;;30.12;44.99
59110;BME280;44895;47.438;18.978;2022-07-24T10:08:49;100186.31;;;30.09;45.22
59110;BME280;44895;47.438;18.978;2022-07-24T10:11:56;100178.97;;;30.19;45.13
59110;BME280;44895;47.438;18.978;2022-07-24T10:15:01;100185.47;;;30.36;45.35
59110;BME280;44895;47.438;18.978;2022-07-24T10:18:14;100183.09;;;30.34;43.62
59110;BME280;44895;47.438;18.978;2022-07-24T10:21:21;100177.69;;;30.23;43.02
59110;BME280;44895;47.438;18.978;2022-07-24T10:28:01;100178.06;;;30.25;41.84
59110;BME280;44895;47.438;18.978;2022-07-24T10:31:08;100177.28;;;30.45;41.24
59110;BME280;44895;47.438;18.978;2022-07-24T10:34:42;100184.38;;;30.30;39.81
59110;BME280;44895;47.438;18.978;2022-07-24T10:38:00;100188.84;;;30.47;40.50
59110;BME280;44895;47.438;18.978;2022-07-24T10:41:14;100184.47;;;30.46;40.96
59110;BME280;44895;47.438;18.978;2022-07-24T10:44:18;100181.25;;;30.48;41.14
59110;BME280;44895;47.438;18.978;2022-07-24T10:47:26;100183.38;;;30.40;39.87
59110;BME280;44895;47.438;18.978;2022-07-24T10:54:01;100187.06;;;30.13;39.30
59110;BME280;44895;47.438;18.978;2022-07-24T10:57:05;100174.63;;;30.14;38.92
59110;BME280;44895;47.438;18.978;2022-07-24T11:00:45;100187.50;;;30.12;38.47
59110;BME280;44895;47.438;18.978;2022-07-24T11:03:50;100179.81;;;30.16;38.71
59110;BME280;44895;47.438;18.978;2022-07-24T11:10:05;100173.44;;;30.15;39.66
59110;BME280;44895;47.438;18.978;2022-07-24T11:16:36;100173.44;;;30.15;39.14
59110;BME280;44895;47.438;18.978;2022-07-24T11:19:41;100165.63;;;30.03;39.17
59110;BME280;44895;47.438;18.978;2022-07-24T11:22:46;100159.53;;;30.08;39.08
59110;BME280;44895;47.438;18.978;2022-07-24T11:29:38;100157.88;;;30.34;39.27
59110;BME280;44895;47.438;18.978;2022-07-24T11:32:42;100151.25;;;30.48;39.26
59110;BME280;44895;47.438;18.978;2022-07-24T11:35:46;100144.94;;;30.84;38.25
59110;BME280;44895;47.438;18.978;2022-07-24T11:38:51;100142.09;;;31.25;35.83
59110;BME280;44895;47.438;18.978;2022-07-24T11:42:05;100140.53;;;31.23;34.15
59110;BME280;44895;47.438;18.978;2022-07-24T11:45:09;100141.53;;;30.93;34.35
59110;BME280;44895;47.438;18.978;2022-07-24T11:48:19;100140.53;;;30.83;33.14
59110;BME280;44895;47.438;18.978;2022-07-24T11:51:23;100138.66;;;30.97;33.49
59110;BME280;44895;47.438;18.978;2022-07-24T11:54:28;100140.53;;;31.03;33.58
59110;BME280;44895;47.438;18.978;2022-07-24T11:57:35;100134.47;;;31.25;33.58
59110;BME280;44895;47.438;18.978;2022-07-24T12:00:40;100134.59;;;31.38;33.21
59110;BME280;44895;47.438;18.978;2022-07-24T12:03:57;100113.13;;;31.48;33.63
59110;BME280;44895;47.438;18.978;2022-07-24T12:07:01;100130.38;;;31.46;32.53
59110;BME280;44895;47.438;18.978;2022-07-24T12:10:08;100130.22;;;31.37;32.70
59110;BME280;44895;47.438;18.978;2022-07-24T12:13:12;100123.16;;;31.29;31.32
59110;BME280;44895;47.438;18.978;2022-07-24T12:16:26;100119.59;;;31.28;29.98
59110;BME280;44895;47.438;18.978;2022-07-24T12:19:32;100124.22;;;31.35;29.55
59110;BME280;44895;47.438;18.978;2022-07-24T12:22:36;100123.78;;;31.20;29.02
59110;BME280;44895;47.438;18.978;2022-07-24T12:25:41;100111.97;;;31.29;28.40
59110;BME280;44895;47.438;18.978;2022-07-24T12:28:45;100115.56;;;31.29;27.83
59110;BME280;44895;47.438;18.978;2022-07-24T12:31:49;100107.91;;;31.13;28.73
59110;BME280;44895;47.438;18.978;2022-07-24T12:34:53;100107.38;;;31.18;30.34
59110;BME280;44895;47.438;18.978;2022-07-24T12:37:58;100107.91;;;31.13;30.39
59110;BME280;44895;47.438;18.978;2022-07-24T12:44:15;100103.34;;;31.19;28.94
59110;BME280;44895;47.438;18.978;2022-07-24T12:47:19;100105.66;;;31.25;28.53
59110;BME280;44895;47.438;18.978;2022-07-24T12:50:22;100102.66;;;31.15;28.02
59110;BME280;44895;47.438;18.978;2022-07-24T12:53:28;100100.31;;;31.14;27.86
59110;BME280;44895;47.438;18.978;2022-07-24T12:56:33;100091.44;;;31.15;27.59
59110;BME280;44895;47.438;18.978;2022-07-24T12:59:41;100090.88;;;31.04;27.19
59110;BME280;44895;47.438;18.978;2022-07-24T13:02:45;100087.69;;;31.02;27.16
59110;BME280;44895;47.438;18.978;2022-07-24T13:05:54;100091.53;;;31.12;28.05
59110;BME280;44895;47.438;18.978;2022-07-24T13:08:58;100097.84;;;30.96;27.84
59110;BME280;44895;47.438;18.978;2022-07-24T13:12:04;100089.94;;;30.90;28.33
59110;BME280;44895;47.438;18.978;2022-07-24T13:15:08;100085.56;;;30.89;28.19
59110;BME280;44895;47.438;18.978;2022-07-24T13:18:12;100088.03;;;30.87;27.56
59110;BME280;44895;47.438;18.978;2022-07-24T13:21:16;100077.59;;;30.88;27.51
59110;BME280;44895;47.438;18.978;2022-07-24T13:24:22;100080.31;;;30.91;27.30
59110;BME280;44895;47.438;18.978;2022-07-24T13:27:26;100079.03;;;30.96;27.71
59110;BME280;44895;47.438;18.978;2022-07-24T13:30:29;100074.03;;;31.04;27.76
59110;BME280;44895;47.438;18.978;2022-07-24T13:33:33;100080.59;;;30.97;27.90
59110;BME280;44895;47.438;18.978;2022-07-24T13:36:37;100066.13;;;30.82;27.86
59110;BME280;44895;47.438;18.978;2022-07-24T13:39:41;100060.06;;;30.84;28.03
59110;BME280;44895;47.438;18.978;2022-07-24T13:42:46;100063.94;;;30.90;27.02
59110;BME280;44895;47.438;18.978;2022-07-24T13:45:53;100056.59;;;30.96;26.62
59110;BME280;44895;47.438;18.978;2022-07-24T13:48:57;100060.63;;;30.95;26.54
59110;BME280;44895;47.438;18.978;2022-07-24T13:52:00;100054.84;;;30.86;26.63
59110;BME280;44895;47.438;18.978;2022-07-24T13:55:04;100054.72;;;30.89;27.28
59110;BME280;44895;47.438;18.978;2022-07-24T13:58:08;100039.22;;;30.85;27.17
59110;BME280;44895;47.438;18.978;2022-07-24T14:01:12;100039.50;;;30.90;27.14
59110;BME280;44895;47.438;18.978;2022-07-24T14:04:21;100041.78;;;30.96;26.64
59110;BME280;44895;47.438;18.978;2022-07-24T14:07:24;100041.06;;;30.91;26.31
59110;BME280;44895;47.438;18.978;2022-07-24T14:10:29;100034.41;;;30.85;27.29
59110;BME280;44895;47.438;18.978;2022-07-24T14:13:32;100030.03;;;30.84;27.45
59110;BME280;44895;47.438;18.978;2022-07-24T14:16:36;100031.53;;;30.89;27.59
59110;BME280;44895;47.438;18.978;2022-07-24T14:19:40;100031.44;;;30.93;26.57
59110;BME280;44895;47.438;18.978;2022-07-24T14:22:44;100032.81;;;30.84;24.89
59110;BME280;44895;47.438;18.978;2022-07-24T14:25:48;100023.34;;;30.78;25.00
59110;BME280;44895;47.438;18.978;2022-07-24T14:28:53;100020.50;;;30.62;25.44
59110;BME280;44895;47.438;18.978;2022-07-24T14:31:57;100016.50;;;30.63;26.60
59110;BME280;44895;47.438;18.978;2022-07-24T14:35:01;100015.63;;;30.66;27.20
59110;BME280;44895;47.438;18.978;2022-07-24T14:38:09;100017.56;;;30.69;27.45
59110;BME280;44895;47.438;18.978;2022-07-24T14:41:13;100020.44;;;30.65;26.75
59110;BME280;44895;47.438;18.978;2022-07-24T14:44:16;100020.50;;;30.62;27.17
59110;BME280;44895;47.438;18.978;2022-07-24T14:47:20;100007.00;;;30.56;26.87
59110;BME280;44895;47.438;18.978;2022-07-24T14:50:24;100011.59;;;30.67;27.10
59110;BME280;44895;47.438;18.978;2022-07-24T14:53:28;100009.22;;;30.65;27.13
59110;BME280;44895;47.438;18.978;2022-07-24T14:56:31;100009.47;;;30.54;27.02
59110;BME280;44895;47.438;18.978;2022-07-24T14:59:35;100011.84;;;30.56;26.49
59110;BME280;44895;47.438;18.978;2022-07-24T15:02:39;100001.78;;;30.58;26.13
59110;BME280;44895;47.438;18.978;2022-07-24T15:05:43;100004.94;;;30.61;26.95
59110;BME280;44895;47.438;18.978;2022-07-24T15:08:47;100003.13;;;30.50;26.39
59110;BME280;44895;47.438;18.978;2022-07-24T15:11:51;99996.81;;;30.46;27.33
59110;BME280;44895;47.438;18.978;2022-07-24T15:14:55;100003.56;;;30.49;26.86
59110;BME280;44895;47.438;18.978;2022-07-24T15:17:58;99989.72;;;30.41;27.29
59110;BME280;44895;47.438;18.978;2022-07-24T15:21:02;99994.50;;;30.41;27.04
59110;BME280;44895;47.438;18.978;2022-07-24T15:24:06;99983.25;;;30.45;27.09
59110;BME280;44895;47.438;18.978;2022-07-24T15:27:11;99988.47;;;30.42;27.63
59110;BME280;44895;47.438;18.978;2022-07-24T15:30:17;99988.97;;;30.37;27.50
59110;BME280;44895;47.438;18.978;2022-07-24T15:33:21;99975.41;;;30.36;27.37
59110;BME280;44895;47.438;18.978;2022-07-24T15:36:25;99994.06;;;30.42;27.87
59110;BME280;44895;47.438;18.978;2022-07-24T15:39:28;99988.97;;;30.37;27.75
59110;BME280;44895;47.438;18.978;2022-07-24T15:42:32;99985.97;;;30.28;27.36
59110;BME280;44895;47.438;18.978;2022-07-24T15:45:37;99972.75;;;30.29;27.40
59110;BME280;44895;47.438;18.978;2022-07-24T15:48:40;99974.00;;;30.28;27.78
59110;BME280;44895;47.438;18.978;2022-07-24T15:51:44;99974.00;;;30.28;27.59
59110;BME280;44895;47.438;18.978;2022-07-24T15:54:48;99973.34;;;30.20;28.08
59110;BME280;44895;47.438;18.978;2022-07-24T15:57:52;99973.34;;;30.20;27.82
59110;BME280;44895;47.438;18.978;2022-07-24T16:00:56;99975.88;;;30.14;27.67
59110;BME280;44895;47.438;18.978;2022-07-24T16:04:00;99973.56;;;30.09;27.49
59110;BME280;44895;47.438;18.978;2022-07-24T16:07:04;99973.50;;;30.13;27.76
59110;BME280;44895;47.438;18.978;2022-07-24T16:10:08;99978.38;;;30.08;27.92
59110;BME280;44895;47.438;18.978;2022-07-24T16:13:12;99979.16;;;30.09;27.56
59110;BME280;44895;47.438;18.978;2022-07-24T16:16:15;99977.78;;;29.97;27.68
59110;BME280;44895;47.438;18.978;2022-07-24T16:19:19;99966.25;;;29.95;27.48